Time;durP1;ratioP1;P1;durP2;ratioP2;P2;SDS_P1;SDS_P2;PMS_P1;PMS_P2;Temp;Humidity;BMP_temperature;BMP_pressure;BME280_temperature;BME280_humidity;BME280_pressure;Samples;Min_cycle;Max_cycle;Signal;HPM_P1;HPM_P2
2024/03/05 00:04:32;;;;;;;12.90;11.02;;;;;;;4.26;100.00;101185.84;10494194;28;20452;-69
2024/03/05 00:09:34;;;;;;;15.32;10.52;;;;;;;4.25;100.00;101191.38;10492369;28;20464;-70
2024/03/05 00:14:34;;;;;;;16.02;11.98;;;;;;;4.25;100.00;101186.84;10475901;28;20032;-69
2024/03/05 00:19:36;;;;;;;15.70;13.63;;;;;;;4.23;100.00;101188.84;10493750;28;20032;-70
2024/03/05 00:24:36;;;;;;;19.13;14.10;;;;;;;4.20;100.00;101186.44;10493351;28;20082;-70
2024/03/05 00:29:36;;;;;;;24.20;11.73;;;;;;;4.14;100.00;101181.69;10496430;28;20109;-70
2024/03/05 00:34:38;;;;;;;18.45;14.13;;;;;;;4.02;100.00;101196.25;10478106;28;20020;-73
2024/03/05 00:39:38;;;;;;;20.13;14.65;;;;;;;4.13;100.00;101183.53;10495824;28;20028;-69
2024/03/05 00:44:38;;;;;;;21.70;15.77;;;;;;;4.22;100.00;101189.00;10496484;28;20063;-70
2024/03/05 00:49:39;;;;;;;19.50;13.30;;;;;;;4.24;100.00;101190.50;10496227;28;20109;-70
2024/03/05 00:54:39;;;;;;;28.02;16.52;;;;;;;4.19;100.00;101184.78;10494671;28;20036;-70
2024/03/05 00:59:40;;;;;;;20.75;14.45;;;;;;;4.19;100.00;101180.25;10494026;28;20087;-69
2024/03/05 01:04:40;;;;;;;23.80;15.52;;;;;;;4.13;100.00;101186.19;10476293;28;20028;-70
2024/03/05 01:09:40;;;;;;;15.90;12.70;;;;;;;4.09;100.00;101175.94;10502953;28;20063;-70
2024/03/05 01:14:41;;;;;;;27.80;15.57;;;;;;;4.06;100.00;101171.72;10502492;28;20036;-69
2024/03/05 01:19:41;;;;;;;16.73;14.27;;;;;;;4.09;100.00;101173.25;10503370;28;20067;-69
2024/03/05 01:24:42;;;;;;;22.25;16.48;;;;;;;4.07;100.00;101170.72;10502720;28;20036;-70
2024/03/05 01:29:43;;;;;;;23.92;16.95;;;;;;;4.00;100.00;101161.59;10500793;28;20159;-69
2024/03/05 01:34:44;;;;;;;21.20;16.00;;;;;;;3.97;100.00;101156.53;10501952;28;20028;-69
2024/03/05 01:39:44;;;;;;;24.45;17.83;;;;;;;3.96;100.00;101150.31;10500157;28;20408;-67
2024/03/05 01:44:47;;;;;;;22.90;16.23;;;;;;;4.04;100.00;101154.09;10501370;28;20085;-69
2024/03/05 01:49:48;;;;;;;22.85;16.83;;;;;;;4.03;100.00;101161.28;10500213;28;20074;-69
2024/03/05 01:54:52;;;;;;;20.83;16.13;;;;;;;4.03;100.00;101145.22;10500720;28;20105;-69
2024/03/05 01:59:52;;;;;;;24.75;17.52;;;;;;;4.09;100.00;101147.31;10483697;28;20055;-70
2024/03/05 02:04:53;;;;;;;27.27;18.15;;;;;;;4.11;100.00;101147.13;10500059;28;20024;-69
2024/03/05 02:09:54;;;;;;;24.20;17.98;;;;;;;4.01;100.00;101157.06;10499921;28;20055;-69
2024/03/05 02:14:54;;;;;;;25.98;18.35;;;;;;;3.92;100.00;101153.44;10499505;28;20045;-69
2024/03/05 02:19:55;;;;;;;24.15;17.75;;;;;;;3.89;100.00;101149.25;10499277;28;20377;-69
2024/03/05 02:24:55;;;;;;;26.83;17.17;;;;;;;3.80;100.00;101157.28;10499996;28;20024;-69
2024/03/05 02:29:56;;;;;;;29.52;17.80;;;;;;;3.73;100.00;101159.72;10499043;28;20392;-69
2024/03/05 02:34:56;;;;;;;24.25;18.15;;;;;;;3.75;100.00;101162.25;10499911;28;20036;-69
2024/03/05 02:39:57;;;;;;;27.08;18.63;;;;;;;3.80;100.00;101158.16;10499428;28;20078;-68
2024/03/05 02:44:57;;;;;;;27.13;19.65;;;;;;;3.79;100.00;101159.13;10498707;28;20035;-69
2024/03/05 02:49:59;;;;;;;31.38;20.48;;;;;;;3.67;100.00;101155.81;10499072;28;20448;-69
2024/03/05 02:54:59;;;;;;;29.55;19.38;;;;;;;3.66;100.00;101154.09;10498370;28;20035;-69
2024/03/05 03:00:00;;;;;;;26.55;18.77;;;;;;;3.60;100.00;101152.00;10497642;28;20075;-69
2024/03/05 03:05:00;;;;;;;31.52;19.48;;;;;;;3.69;100.00;101152.97;10496606;28;20033;-69
2024/03/05 03:10:00;;;;;;;31.48;22.10;;;;;;;3.72;100.00;101152.69;10497692;28;20107;-69
2024/03/05 03:15:01;;;;;;;31.83;22.35;;;;;;;3.77;100.00;101163.81;10497202;28;20024;-68
2024/03/05 03:20:03;;;;;;;28.98;20.92;;;;;;;3.76;100.00;101167.47;10497827;28;20029;-69
2024/03/05 03:25:04;;;;;;;30.83;21.85;;;;;;;3.71;100.00;101170.59;10499907;28;20043;-69
2024/03/05 03:30:05;;;;;;;35.80;22.92;;;;;;;3.77;100.00;101168.31;10498672;28;20024;-68
2024/03/05 03:35:06;;;;;;;38.47;23.27;;;;;;;3.85;100.00;101165.75;10498741;28;20043;-69
2024/03/05 03:40:09;;;;;;;33.75;22.83;;;;;;;4.04;100.00;101159.44;10499204;28;20032;-69
2024/03/05 03:45:13;;;;;;;37.80;24.40;;;;;;;4.15;100.00;101152.06;10497694;28;20059;-68
2024/03/05 03:50:13;;;;;;;38.90;24.88;;;;;;;4.27;100.00;101152.69;10495096;28;20052;-69
2024/03/05 03:55:15;;;;;;;37.75;25.23;;;;;;;4.35;100.00;101160.84;10495394;28;20504;-70
2024/03/05 04:00:18;;;;;;;43.35;25.23;;;;;;;4.46;100.00;101157.09;10496719;28;20106;-70
2024/03/05 04:05:19;;;;;;;39.45;24.45;;;;;;;4.52;100.00;101152.97;10495263;28;20032;-69
2024/03/05 04:10:19;;;;;;;37.40;25.85;;;;;;;4.55;100.00;101164.22;10495728;28;20483;-69
2024/03/05 04:15:20;;;;;;;43.80;30.27;;;;;;;4.56;100.00;101163.25;10495598;28;20044;-68
2024/03/05 04:20:20;;;;;;;45.33;30.67;;;;;;;4.58;100.00;101165.75;10495822;28;20051;-67
2024/03/05 04:25:25;;;;;;;44.05;29.88;;;;;;;4.61;100.00;101171.66;10494385;28;20116;-68
2024/03/05 04:30:26;;;;;;;37.10;26.38;;;;;;;4.60;100.00;101170.00;10496031;28;20032;-68
2024/03/05 04:35:27;;;;;;;53.42;29.08;;;;;;;4.66;100.00;101181.94;10494190;28;20029;-69
2024/03/05 04:40:29;;;;;;;55.90;31.52;;;;;;;4.75;100.00;101186.38;10495012;28;20032;-69
2024/03/05 04:45:30;;;;;;;46.45;32.28;;;;;;;4.70;100.00;101186.00;10503148;28;20032;-69
2024/03/05 04:50:30;;;;;;;45.20;31.42;;;;;;;4.83;100.00;101172.22;10502895;28;20467;-68
2024/03/05 04:55:31;;;;;;;53.78;32.60;;;;;;;4.86;100.00;101167.38;10501222;28;20044;-67
2024/03/05 05:00:31;;;;;;;61.60;32.95;;;;;;;4.96;100.00;101175.34;10501707;28;20049;-68
2024/03/05 05:05:32;;;;;;;58.17;36.95;;;;;;;5.01;100.00;101174.88;10501514;28;20438;-69
2024/03/05 05:10:33;;;;;;;54.90;35.10;;;;;;;5.05;100.00;101174.44;10500838;28;20020;-68
2024/03/05 05:15:33;;;;;;;56.13;35.53;;;;;;;5.11;100.00;101168.44;10501255;28;20783;-68
2024/03/05 05:20:34;;;;;;;46.65;34.95;;;;;;;5.18;100.00;101163.28;10499770;28;20041;-68
2024/03/05 05:25:34;;;;;;;54.17;37.15;;;;;;;5.30;100.00;101172.78;10501893;28;20167;-69
2024/03/05 05:30:35;;;;;;;57.08;34.65;;;;;;;5.38;100.00;101172.00;10499270;28;20373;-69
2024/03/05 05:35:37;;;;;;;59.53;39.50;;;;;;;5.42;100.00;101164.47;10501003;28;20114;-68
2024/03/05 05:40:38;;;;;;;54.35;36.83;;;;;;;5.52;100.00;101166.06;10483435;28;20500;-69
2024/03/05 05:45:38;;;;;;;65.75;41.28;;;;;;;5.51;100.00;101176.94;10500064;28;20043;-69
2024/03/05 05:50:39;;;;;;;64.93;40.13;;;;;;;5.57;100.00;101176.31;10501327;28;20384;-69
2024/03/05 05:55:39;;;;;;;54.17;37.90;;;;;;;5.69;100.00;101182.28;10498500;28;20028;-69
2024/03/05 06:00:40;;;;;;;62.75;36.72;;;;;;;5.68;100.00;101177.88;10499246;28;20044;-68
2024/03/05 06:05:42;;;;;;;62.22;38.60;;;;;;;5.76;100.00;101189.53;10496422;28;20120;-68
2024/03/05 06:10:42;;;;;;;75.28;37.17;;;;;;;5.79;100.00;101197.28;10497395;28;20332;-69
2024/03/05 06:15:43;;;;;;;61.85;40.08;;;;;;;5.73;100.00;101194.38;10399315;28;20048;-69
2024/03/05 06:20:44;;;;;;;62.85;39.53;;;;;;;5.81;100.00;101197.13;10496753;28;20495;-69
2024/03/05 06:25:44;;;;;;;75.70;41.38;;;;;;;5.80;100.00;101196.25;10435956;28;20248;-69
2024/03/05 06:30:46;;;;;;;61.55;37.70;;;;;;;5.83;100.00;101201.31;10494941;28;20380;-69
2024/03/05 06:35:48;;;;;;;66.65;41.50;;;;;;;5.91;100.00;101205.91;10496368;28;20517;-69
2024/03/05 06:40:48;;;;;;;68.55;43.05;;;;;;;6.05;100.00;101209.88;10496789;28;20047;-69
2024/03/05 06:45:50;;;;;;;71.88;43.80;;;;;;;6.12;100.00;101218.97;10496400;28;20043;-68
2024/03/05 06:51:01;;;;;;;57.05;40.47;;;;;;;6.21;100.00;101218.03;10494431;28;20043;-69
2024/03/05 07:01:20;;;;;;;74.03;41.20;;;;;;;6.21;100.00;101231.47;10494977;28;20048;-69
2024/03/05 07:06:23;;;;;;;62.20;38.35;;;;;;;6.19;100.00;101227.25;10493525;28;20028;-70
2024/03/05 07:11:25;;;;;;;58.85;36.15;;;;;;;6.22;100.00;101210.78;10494589;28;20440;-69
2024/03/05 07:16:25;;;;;;;58.15;37.70;;;;;;;6.23;100.00;101215.19;10492941;28;20581;-70
2024/03/05 07:21:28;;;;;;;69.00;40.65;;;;;;;6.20;100.00;101216.34;10493998;28;20032;-71
2024/03/05 07:26:31;;;;;;;58.35;36.83;;;;;;;6.30;100.00;101218.91;10493617;28;20394;-71
2024/03/05 07:31:32;;;;;;;67.22;37.05;;;;;;;6.36;100.00;101217.44;10493705;28;20032;-69
2024/03/05 07:36:33;;;;;;;65.10;40.85;;;;;;;6.43;100.00;101221.97;10492641;28;20069;-69
2024/03/05 07:41:33;;;;;;;60.05;36.42;;;;;;;6.48;100.00;101233.09;10492831;28;20070;-69
2024/03/05 07:46:34;;;;;;;59.08;37.08;;;;;;;6.53;100.00;101238.81;10493253;28;20039;-69
2024/03/05 07:51:35;;;;;;;57.38;35.88;;;;;;;6.52;100.00;101234.47;10508832;28;20025;-69
2024/03/05 07:56:35;;;;;;;61.13;37.83;;;;;;;6.55;100.00;101237.84;10492663;28;20503;-68
2024/03/05 08:01:36;;;;;;;64.57;41.00;;;;;;;6.53;100.00;101238.00;10491611;28;20032;-68
2024/03/05 08:06:37;;;;;;;69.75;40.42;;;;;;;6.58;100.00;101232.97;10492688;28;20060;-69
2024/03/05 08:11:37;;;;;;;61.40;36.28;;;;;;;6.64;100.00;101245.78;10492643;28;20048;-67
2024/03/05 08:16:38;;;;;;;56.85;38.55;;;;;;;6.57;100.00;101251.97;10492951;28;20112;-67
2024/03/05 08:21:38;;;;;;;61.20;38.17;;;;;;;6.68;100.00;101260.59;10491282;28;20086;-67
2024/03/05 08:26:39;;;;;;;61.25;36.78;;;;;;;6.71;100.00;101259.41;10492261;28;20398;-68
2024/03/05 08:31:39;;;;;;;71.72;42.60;;;;;;;6.79;100.00;101258.59;10490521;28;20742;-68
2024/03/05 08:36:40;;;;;;;71.40;42.22;;;;;;;6.75;100.00;101267.00;10491606;28;20433;-68
2024/03/05 08:41:40;;;;;;;56.90;36.53;;;;;;;6.73;100.00;101273.53;10490235;28;20040;-68
2024/03/05 08:46:41;;;;;;;63.97;39.85;;;;;;;6.75;100.00;101269.69;10506917;28;20036;-67
2024/03/05 08:51:41;;;;;;;64.47;38.95;;;;;;;6.85;100.00;101276.78;10491326;28;20039;-68
2024/03/05 08:56:42;;;;;;;70.15;38.47;;;;;;;6.95;100.00;101274.78;10491103;28;20165;-69
2024/03/05 09:01:42;;;;;;;61.70;39.70;;;;;;;7.01;100.00;101275.97;10489714;28;20054;-69
2024/03/05 09:06:42;;;;;;;63.78;40.00;;;;;;;7.19;100.00;101288.31;10491667;28;20077;-71
2024/03/05 09:11:43;;;;;;;70.68;41.63;;;;;;;7.41;100.00;101288.69;10491282;28;20361;-67
2024/03/05 09:16:43;;;;;;;53.60;38.25;;;;;;;7.52;100.00;101282.94;10491064;28;20111;-69
2024/03/05 09:21:44;;;;;;;56.22;39.17;;;;;;;7.72;100.00;101290.69;10490594;28;20036;-68
2024/03/05 09:26:44;;;;;;;66.03;39.75;;;;;;;7.87;100.00;101289.00;10491882;28;20039;-68
2024/03/05 09:31:46;;;;;;;61.97;38.88;;;;;;;8.01;100.00;101273.97;10498323;28;20029;-68
2024/03/05 09:36:47;;;;;;;56.92;39.33;;;;;;;8.07;100.00;101293.03;10497478;28;20036;-68
2024/03/05 09:41:48;;;;;;;62.15;39.20;;;;;;;7.99;100.00;101290.31;10497977;28;20037;-68
2024/03/05 09:46:49;;;;;;;64.93;40.13;;;;;;;8.01;100.00;101304.50;10497682;28;20044;-68
2024/03/05 09:51:50;;;;;;;66.47;39.67;;;;;;;8.31;100.00;101308.28;10512834;28;20035;-68
2024/03/05 09:56:53;;;;;;;51.03;36.92;;;;;;;8.41;100.00;101305.44;10495795;28;20052;-69
2024/03/05 10:01:53;;;;;;;64.07;37.55;;;;;;;8.41;100.00;101305.44;10497196;28;20027;-68
2024/03/05 10:06:53;;;;;;;51.75;35.53;;;;;;;8.45;100.00;101317.56;10495471;28;20047;-69
2024/03/05 10:11:54;;;;;;;51.58;34.70;;;;;;;8.48;100.00;101322.59;10496896;28;20472;-69
2024/03/05 10:17:00;;;;;;;58.67;36.65;;;;;;;8.65;100.00;101323.41;10497296;28;20090;-69
2024/03/05 10:22:09;;;;;;;61.22;37.95;;;;;;;8.78;100.00;101328.25;10495878;28;20024;-68
2024/03/05 10:27:11;;;;;;;56.47;35.05;;;;;;;9.03;100.00;101332.53;10496652;28;20029;-69
2024/03/05 10:32:16;;;;;;;49.45;34.25;;;;;;;9.29;100.00;101328.66;10496676;28;20032;-69
2024/03/05 10:37:16;;;;;;;51.58;35.75;;;;;;;9.46;100.00;101326.69;10493776;28;20141;-69
2024/03/05 10:42:16;;;;;;;59.03;37.83;;;;;;;9.64;100.00;101331.81;10510574;28;20028;-70
2024/03/05 10:47:17;;;;;;;56.00;35.95;;;;;;;9.89;100.00;101338.69;10495434;28;20449;-69
2024/03/05 10:52:17;;;;;;;51.65;32.33;;;;;;;10.04;100.00;101337.88;10494961;28;20025;-68
2024/03/05 10:57:18;;;;;;;39.00;30.23;;;;;;;9.92;100.00;101338.34;10476898;28;20044;-69
2024/03/05 11:02:19;;;;;;;38.35;28.73;;;;;;;10.07;100.00;101351.03;10494767;28;20540;-69
2024/03/05 11:07:21;;;;;;;35.35;23.52;;;;;;;10.11;100.00;101342.38;10492750;28;20113;-68
2024/03/05 11:12:21;;;;;;;36.28;25.80;;;;;;;9.96;100.00;101349.63;10492684;28;20027;-70
2024/03/05 11:17:22;;;;;;;38.67;21.08;;;;;;;9.80;100.00;101347.91;10493259;28;20024;-69
2024/03/05 11:22:24;;;;;;;45.33;20.88;;;;;;;9.67;100.00;101350.38;10494572;28;20067;-69
2024/03/05 11:27:25;;;;;;;29.60;21.95;;;;;;;9.42;100.00;101357.81;10475979;28;20135;-68
2024/03/05 11:32:32;;;;;;;26.85;19.02;;;;;;;9.15;100.00;101354.56;10458746;28;20123;-68
2024/03/05 11:37:55;;;;;;;29.80;21.75;;;;;;;9.19;100.00;101355.91;10491572;28;20063;-69
2024/03/05 11:42:56;;;;;;;26.83;18.58;;;;;;;9.16;100.00;101355.44;10491789;28;20083;-68
2024/03/05 11:47:56;;;;;;;28.02;18.33;;;;;;;9.05;100.00;101348.53;10492781;28;20036;-69
2024/03/05 11:52:57;;;;;;;21.98;14.43;;;;;;;9.12;100.00;101354.09;10490792;28;20036;-69
2024/03/05 11:57:58;;;;;;;21.25;15.13;;;;;;;9.19;100.00;101350.50;10492049;28;20131;-69
2024/03/05 12:02:58;;;;;;;23.15;17.10;;;;;;;9.35;100.00;101349.56;10473780;28;20170;-68
2024/03/05 12:08:00;;;;;;;19.42;14.65;;;;;;;9.63;100.00;101357.16;10490538;28;20028;-69
2024/03/05 12:13:04;;;;;;;24.35;15.00;;;;;;;9.86;100.00;101355.28;10491592;28;20119;-69
2024/03/05 12:18:10;;;;;;;14.82;12.57;;;;;;;9.84;100.00;101362.75;10490819;28;20047;-69
2024/03/05 12:23:11;;;;;;;15.65;11.65;;;;;;;9.73;100.00;101363.16;10490173;28;20457;-69
2024/03/05 12:28:12;;;;;;;10.73;9.68;;;;;;;9.67;100.00;101370.16;10491541;28;20107;-69
2024/03/05 12:33:18;;;;;;;12.07;9.52;;;;;;;9.60;100.00;101360.22;10491719;28;20474;-69
2024/03/05 12:38:18;;;;;;;9.07;8.20;;;;;;;9.67;100.00;101375.56;10491352;28;20261;-71
2024/03/05 12:43:19;;;;;;;10.55;8.38;;;;;;;9.70;100.00;101364.38;10490022;28;20044;-69
2024/03/05 12:48:25;;;;;;;12.25;7.70;;;;;;;9.78;100.00;101374.28;10490200;28;20142;-69
2024/03/05 12:53:26;;;;;;;11.90;7.13;;;;;;;9.69;100.00;101372.66;10490307;28;20032;-69
2024/03/05 12:58:26;;;;;;;13.52;7.72;;;;;;;9.66;100.00;101375.72;10493047;28;20059;-69
2024/03/05 13:03:27;;;;;;;14.95;9.38;;;;;;;9.67;100.00;101377.41;10495260;28;20078;-69
2024/03/05 13:08:27;;;;;;;11.43;8.65;;;;;;;9.65;100.00;101379.44;10500565;28;20116;-68
2024/03/05 13:13:28;;;;;;;11.43;8.82;;;;;;;9.48;100.00;101392.25;10500031;28;20123;-68
2024/03/05 13:18:28;;;;;;;9.98;7.65;;;;;;;9.30;100.00;101396.03;10499196;28;20115;-69
2024/03/05 13:23:29;;;;;;;9.15;6.63;;;;;;;9.22;100.00;101397.94;10499401;28;20028;-68
2024/03/05 13:28:30;;;;;;;0.75;0.75;;;;;;;9.19;100.00;101403.69;10497163;28;20515;-68
2024/03/05 13:33:30;;;;;;;4.00;3.35;;;;;;;9.10;100.00;101405.59;10497997;28;20044;-67
2024/03/05 13:38:34;;;;;;;1.05;1.05;;;;;;;9.23;100.00;101410.44;10498305;28;20100;-69
2024/03/05 13:43:34;;;;;;;0.70;0.70;;;;;;;9.26;100.00;101413.63;10498227;28;20021;-69
2024/03/05 13:48:35;;;;;;;0.70;0.70;;;;;;;9.22;100.00;101408.75;10498214;28;20508;-68
2024/03/05 13:53:36;;;;;;;0.88;0.88;;;;;;;9.47;100.00;101406.75;10497881;28;20025;-68
2024/03/05 13:58:37;;;;;;;0.75;0.75;;;;;;;9.73;100.00;101401.88;10497457;28;20779;-70
2024/03/05 14:03:38;;;;;;;0.60;0.60;;;;;;;10.05;100.00;101404.50;10495336;28;20093;-68
2024/03/05 14:08:41;;;;;;;1.02;1.02;;;;;;;10.25;100.00;101400.28;10496985;28;20024;-66
2024/03/05 14:13:42;;;;;;;0.45;0.45;;;;;;;10.20;100.00;101399.97;10496691;28;20034;-66
2024/03/05 14:18:43;;;;;;;1.15;1.15;;;;;;;10.12;100.00;101400.91;10496499;28;20035;-66
2024/03/05 14:23:43;;;;;;;0.50;0.50;;;;;;;9.98;100.00;101405.22;10496799;28;20028;-67
2024/03/05 14:28:44;;;;;;;0.88;0.88;;;;;;;9.82;100.00;101410.75;10496291;28;20028;-66
2024/03/05 14:33:45;;;;;;;0.50;0.50;;;;;;;9.63;100.00;101412.06;10494245;28;20094;-67
2024/03/05 14:38:46;;;;;;;1.13;1.13;;;;;;;9.44;100.00;101410.66;10494521;28;20149;-68
2024/03/05 14:43:46;;;;;;;0.50;0.50;;;;;;;9.36;100.00;101415.28;10495778;28;20074;-66
2024/03/05 14:48:47;;;;;;;1.33;1.33;;;;;;;9.25;100.00;101411.09;10496225;28;20024;-68
2024/03/05 14:53:47;;;;;;;0.60;0.60;;;;;;;9.19;100.00;101418.06;10495301;28;20028;-68
2024/03/05 14:58:48;;;;;;;1.20;1.20;;;;;;;9.17;100.00;101420.09;10493487;28;20072;-67
2024/03/05 15:03:48;;;;;;;0.77;0.77;;;;;;;9.11;100.00;101422.66;10494065;28;20033;-68
2024/03/05 15:08:49;;;;;;;0.60;0.60;;;;;;;8.85;100.00;101424.59;10495549;28;20052;-66
2024/03/05 15:13:49;;;;;;;0.50;0.50;;;;;;;8.72;100.00;101424.28;10494350;28;20434;-67
2024/03/05 15:18:49;;;;;;;0.47;0.47;;;;;;;8.69;100.00;101423.81;10494704;28;20082;-67
2024/03/05 15:23:51;;;;;;;0.50;0.50;;;;;;;8.73;100.00;101431.38;10493141;28;20352;-67
2024/03/05 15:28:53;;;;;;;0.50;0.50;;;;;;;8.68;100.00;101431.06;10493751;28;20024;-67
2024/03/05 15:33:53;;;;;;;0.60;0.60;;;;;;;8.59;100.00;101438.34;10493152;28;20484;-67
2024/03/05 15:38:54;;;;;;;0.50;0.50;;;;;;;8.59;100.00;101442.88;10492137;28;20036;-67
2024/03/05 15:43:54;;;;;;;0.50;0.50;;;;;;;8.61;100.00;101443.53;10493025;28;20032;-67
2024/03/05 15:48:55;;;;;;;0.40;0.40;;;;;;;8.73;100.00;101442.19;10493604;28;20028;-66
2024/03/05 15:53:55;;;;;;;1.92;1.88;;;;;;;8.80;100.00;101447.72;10474658;28;20067;-65
2024/03/05 16:04:14;;;;;;;0.50;0.50;;;;;;;8.91;100.00;101451.94;10491888;28;20430;-67
2024/03/05 16:09:19;;;;;;;0.47;0.47;;;;;;;8.99;100.00;101452.72;10492173;28;20028;-66
2024/03/05 16:14:19;;;;;;;0.55;0.55;;;;;;;8.92;100.00;101454.44;10492446;28;20135;-67
2024/03/05 16:19:20;;;;;;;0.50;0.50;;;;;;;8.88;100.00;101455.81;10492130;28;20086;-68
2024/03/05 16:24:21;;;;;;;2.25;2.15;;;;;;;8.68;100.00;101462.59;10490678;28;20032;-66
2024/03/05 16:29:22;;;;;;;3.22;1.85;;;;;;;8.69;100.00;101462.44;10492005;28;20059;-67
2024/03/05 16:34:22;;;;;;;0.50;0.50;;;;;;;8.64;100.00;101467.50;10491388;28;20032;-66
2024/03/05 16:39:22;;;;;;;0.50;0.50;;;;;;;8.51;100.00;101462.63;10490819;28;20384;-66
2024/03/05 16:44:23;;;;;;;0.50;0.50;;;;;;;8.43;100.00;101472.59;10491740;28;20121;-66
2024/03/05 16:49:23;;;;;;;0.50;0.50;;;;;;;8.38;100.00;101475.78;10491879;28;20061;-67
2024/03/05 16:54:24;;;;;;;0.50;0.50;;;;;;;8.26;100.00;101485.19;10491639;28;20029;-68
2024/03/05 16:59:26;;;;;;;0.93;0.93;;;;;;;8.16;100.00;101488.06;10492252;28;20094;-67
2024/03/05 17:04:27;;;;;;;1.10;1.10;;;;;;;8.11;100.00;101490.44;10491414;28;20482;-66
2024/03/05 17:09:29;;;;;;;0.60;0.60;;;;;;;8.11;100.00;101498.53;10491747;28;20029;-67
2024/03/05 17:14:30;;;;;;;0.65;0.65;;;;;;;8.11;100.00;101496.66;10491894;28;20036;-67
2024/03/05 17:19:31;;;;;;;0.50;0.50;;;;;;;8.08;100.00;101510.50;10489829;28;20357;-67
2024/03/05 17:24:32;;;;;;;0.70;0.70;;;;;;;8.09;100.00;101511.31;10491103;28;20384;-68
2024/03/05 17:29:32;;;;;;;0.50;0.50;;;;;;;8.03;100.00;101509.28;10490598;28;20391;-68
2024/03/05 17:34:34;;;;;;;0.40;0.40;;;;;;;8.05;100.00;101518.06;10490186;28;20134;-67
2024/03/05 17:39:34;;;;;;;0.80;0.80;;;;;;;8.05;100.00;101520.78;10490676;28;20025;-67
2024/03/05 17:44:35;;;;;;;0.60;0.60;;;;;;;8.05;100.00;101529.69;10490395;28;20487;-68
2024/03/05 17:49:35;;;;;;;1.38;0.55;;;;;;;8.06;100.00;101547.56;10494235;28;20470;-66
2024/03/05 17:54:36;;;;;;;0.82;0.82;;;;;;;8.05;100.00;101539.66;10496431;28;20051;-67
2024/03/05 17:59:37;;;;;;;0.40;0.40;;;;;;;8.02;100.00;101551.59;10497326;28;20495;-68
2024/03/05 18:04:37;;;;;;;3.13;1.52;;;;;;;8.01;100.00;101554.44;10495511;28;20082;-67
2024/03/05 18:09:41;;;;;;;0.57;0.57;;;;;;;8.01;100.00;101559.84;10497085;28;20333;-68
2024/03/05 18:14:42;;;;;;;0.30;0.30;;;;;;;7.97;100.00;101572.81;10496655;28;20031;-67
2024/03/05 18:19:44;;;;;;;0.75;0.75;;;;;;;7.89;100.00;101565.56;10495274;28;20025;-69
2024/03/05 18:24:44;;;;;;;0.50;0.50;;;;;;;7.90;100.00;101566.41;10495276;28;20029;-68
2024/03/05 18:29:45;;;;;;;1.00;1.00;;;;;;;7.85;100.00;101572.28;10496758;28;20103;-67
2024/03/05 18:34:46;;;;;;;0.50;0.50;;;;;;;7.87;100.00;101566.72;10496488;28;20551;-66
2024/03/05 18:39:47;;;;;;;0.85;0.85;;;;;;;7.85;100.00;101569.59;10494789;28;20032;-68
2024/03/05 18:44:47;;;;;;;0.50;0.50;;;;;;;7.80;100.00;101569.22;10495666;28;20028;-68
2024/03/05 18:49:48;;;;;;;0.50;0.50;;;;;;;7.84;100.00;101575.13;10494443;28;20040;-68
2024/03/05 18:54:48;;;;;;;1.13;1.13;;;;;;;7.85;100.00;101561.50;10495870;28;20025;-69
2024/03/05 18:59:49;;;;;;;9.15;5.43;;;;;;;7.85;100.00;101572.28;10493557;28;20057;-69
2024/03/05 19:04:50;;;;;;;10.98;6.32;;;;;;;7.82;100.00;101572.63;10495133;28;20044;-67
2024/03/05 19:09:50;;;;;;;9.45;7.82;;;;;;;7.78;100.00;101567.69;10494911;28;20039;-68
2024/03/05 19:14:51;;;;;;;10.38;7.90;;;;;;;7.66;100.00;101573.41;10497468;28;20020;-68
2024/03/05 19:19:51;;;;;;;10.93;8.15;;;;;;;7.55;100.00;101576.38;10496603;28;20028;-67
2024/03/05 19:24:51;;;;;;;11.50;9.43;;;;;;;7.49;100.00;101574.31;10494479;28;20031;-67
2024/03/05 19:29:54;;;;;;;13.13;11.27;;;;;;;7.50;100.00;101576.03;10494364;28;20060;-67
2024/03/05 19:34:54;;;;;;;19.55;12.07;;;;;;;7.52;100.00;101586.63;10491835;28;20048;-66
2024/03/05 19:39:55;;;;;;;17.05;14.02;;;;;;;7.54;100.00;101581.94;10493840;28;20110;-67
2024/03/05 19:44:55;;;;;;;13.65;12.20;;;;;;;7.58;100.00;101583.28;10433056;28;20051;-69
2024/03/05 19:49:56;;;;;;;16.88;13.82;;;;;;;7.52;100.00;101581.25;10492968;28;20115;-69
2024/03/05 19:54:56;;;;;;;14.05;12.65;;;;;;;7.58;100.00;101586.00;10493336;28;20028;-70
2024/03/05 19:59:57;;;;;;;14.18;11.98;;;;;;;7.64;100.00;101594.28;10492115;28;20086;-69
2024/03/05 20:04:57;;;;;;;13.07;11.57;;;;;;;7.68;100.00;101594.78;10491654;28;20388;-68
2024/03/05 20:09:57;;;;;;;13.60;10.93;;;;;;;7.74;100.00;101601.38;10492498;28;20055;-69
2024/03/05 20:14:58;;;;;;;17.08;13.50;;;;;;;7.74;100.00;101607.63;10492344;28;20029;-67
2024/03/05 20:19:59;;;;;;;22.23;13.68;;;;;;;7.77;100.00;101614.56;10492545;28;20020;-68
2024/03/05 20:25:00;;;;;;;15.52;11.70;;;;;;;7.78;100.00;101618.94;10492131;28;20041;-68
2024/03/05 20:30:00;;;;;;;12.52;11.20;;;;;;;7.75;100.00;101619.25;10491714;28;20123;-67
2024/03/05 20:35:01;;;;;;;14.25;12.80;;;;;;;7.67;100.00;101614.69;10490676;28;20086;-67
2024/03/05 20:40:02;;;;;;;15.65;12.95;;;;;;;7.73;100.00;101621.28;10491434;28;20036;-69
2024/03/05 20:45:05;;;;;;;17.65;15.15;;;;;;;7.73;100.00;101627.50;10491417;28;20029;-68
2024/03/05 20:50:07;;;;;;;19.65;14.68;;;;;;;7.73;100.00;101627.50;10491259;28;20126;-67
2024/03/05 20:55:10;;;;;;;16.60;14.82;;;;;;;7.79;100.00;101637.66;10490017;28;20477;-68
2024/03/05 21:00:20;;;;;;;20.05;13.88;;;;;;;7.78;100.00;101635.09;10490948;28;20047;-68
2024/03/05 21:05:20;;;;;;;16.55;13.88;;;;;;;7.76;100.00;101635.28;10490556;28;20060;-67
2024/03/05 21:10:21;;;;;;;16.15;14.20;;;;;;;7.78;100.00;101637.81;10489690;28;20463;-67
2024/03/05 21:15:23;;;;;;;25.70;20.27;;;;;;;7.74;100.00;101633.75;10491185;28;20031;-66
2024/03/05 21:20:24;;;;;;;29.17;20.23;;;;;;;7.67;100.00;101638.94;10490801;28;20028;-67
2024/03/05 21:25:27;;;;;;;31.05;21.20;;;;;;;7.69;100.00;101645.88;10497187;28;20594;-68
2024/03/05 21:30:27;;;;;;;27.98;21.13;;;;;;;7.59;100.00;101637.03;10498596;28;20388;-69
2024/03/05 21:35:28;;;;;;;30.95;23.65;;;;;;;7.45;100.00;101645.72;10497703;28;20079;-67
2024/03/05 21:40:29;;;;;;;27.85;22.58;;;;;;;7.31;100.00;101639.06;10498185;28;20028;-67
2024/03/05 21:45:29;;;;;;;34.13;22.45;;;;;;;7.17;100.00;101642.31;10496383;28;20111;-67
2024/03/05 21:50:30;;;;;;;24.33;20.50;;;;;;;7.01;100.00;101644.88;10463158;28;20495;-68
2024/03/05 21:55:30;;;;;;;27.58;20.52;;;;;;;6.91;100.00;101637.72;10497353;28;20085;-67
2024/03/05 22:00:31;;;;;;;26.48;19.38;;;;;;;7.02;100.00;101649.25;10497178;28;20468;-68
2024/03/05 22:05:32;;;;;;;25.00;21.17;;;;;;;7.17;100.00;101653.09;10497138;28;20032;-68
2024/03/05 22:10:32;;;;;;;28.63;24.77;;;;;;;7.31;100.00;101654.38;10497262;28;20032;-70
2024/03/05 22:15:34;;;;;;;32.47;26.42;;;;;;;7.40;100.00;101674.97;10496498;28;20032;-68
2024/03/05 22:20:34;;;;;;;40.50;28.98;;;;;;;7.43;100.00;101669.25;10496509;28;20161;-68
2024/03/05 22:25:34;;;;;;;40.33;30.02;;;;;;;7.41;100.00;101680.22;10497447;28;20146;-68
2024/03/05 22:30:35;;;;;;;42.58;26.02;;;;;;;7.47;100.00;101684.13;10497639;28;20040;-67
2024/03/05 22:35:35;;;;;;;37.50;28.25;;;;;;;7.48;100.00;101682.28;10496379;28;20384;-68
2024/03/05 22:40:36;;;;;;;33.53;26.88;;;;;;;7.39;100.00;101686.75;10496986;28;20037;-67
2024/03/05 22:45:36;;;;;;;35.67;26.45;;;;;;;7.30;100.00;101680.47;10496250;28;20032;-69
2024/03/05 22:50:36;;;;;;;35.53;26.70;;;;;;;7.29;100.00;101684.16;10496117;28;20044;-69
2024/03/05 22:55:37;;;;;;;38.83;29.25;;;;;;;7.34;100.00;101683.69;10495803;28;20191;-68